createdAt,value
2022-09-12T00:01:33.385Z,10.8
2022-09-12T00:04:33.350Z,10.8
2022-09-12T00:07:33.331Z,10.9
2022-09-12T00:10:33.347Z,10.7
2022-09-12T00:13:33.359Z,10.5
2022-09-12T00:16:33.447Z,10.4
2022-09-12T00:19:33.370Z,10.2
2022-09-12T00:22:33.402Z,10.2
2022-09-12T00:25:33.387Z,10.1
2022-09-12T00:28:33.401Z,10.1
2022-09-12T00:31:33.433Z,10.2
2022-09-12T00:34:33.422Z,10.2
2022-09-12T00:37:33.429Z,10.2
2022-09-12T00:40:33.465Z,10.2
2022-09-12T00:43:33.452Z,10.2
2022-09-12T00:46:33.465Z,10.2
2022-09-12T00:49:33.466Z,10.2
2022-09-12T00:52:33.478Z,10.1
2022-09-12T00:55:33.479Z,10.1
2022-09-12T00:58:33.519Z,10.1
2022-09-12T01:01:33.683Z,10.1
2022-09-12T01:04:33.511Z,10.1
2022-09-12T01:07:36.862Z,10.2
2022-09-12T01:10:33.524Z,10.2
2022-09-12T01:13:33.535Z,10.2
2022-09-12T01:16:33.613Z,10.1
2022-09-12T01:19:33.556Z,10.1
2022-09-12T01:22:33.564Z,10.1
2022-09-12T01:25:33.584Z,10
2022-09-12T01:28:33.586Z,9.9
2022-09-12T01:31:33.591Z,9.9
2022-09-12T01:34:33.632Z,9.9
2022-09-12T01:37:33.620Z,9.9
2022-09-12T01:40:33.619Z,9.8
2022-09-12T01:43:33.631Z,9.7
2022-09-12T01:46:33.641Z,9.6
2022-09-12T01:49:33.652Z,9.6
2022-09-12T01:52:33.682Z,9.7
2022-09-12T01:55:33.672Z,9.7
2022-09-12T01:58:33.671Z,9.7
2022-09-12T02:01:33.730Z,9.7
2022-09-12T02:04:34.450Z,9.7
2022-09-12T02:07:33.709Z,9.7
2022-09-12T02:10:33.739Z,9.6
2022-09-12T02:13:33.729Z,9.6
2022-09-12T02:16:33.797Z,9.6
2022-09-12T02:19:33.739Z,9.5
2022-09-12T02:22:33.741Z,9.5
2022-09-12T02:25:33.744Z,9.4
2022-09-12T02:28:33.768Z,9.3
2022-09-12T02:31:33.753Z,9.3
2022-09-12T02:34:33.750Z,9.3
2022-09-12T02:37:33.749Z,9.3
2022-09-12T02:40:33.753Z,9.3
2022-09-12T02:43:33.752Z,9.3
2022-09-12T02:46:33.781Z,9.3
2022-09-12T02:49:33.753Z,9.3
2022-09-12T02:52:33.758Z,9.3
2022-09-12T02:55:33.757Z,9.2
2022-09-12T02:58:33.760Z,9.1
2022-09-12T03:01:33.822Z,9.1
2022-09-12T03:04:33.791Z,9.2
2022-09-12T03:07:33.771Z,9.1
2022-09-12T03:10:33.775Z,9.1
2022-09-12T03:13:33.774Z,9.1
2022-09-12T03:16:33.784Z,9.1
2022-09-12T03:19:33.778Z,9
2022-09-12T03:22:33.803Z,8.9
2022-09-12T03:25:33.780Z,8.8
2022-09-12T03:28:33.795Z,8.8
2022-09-12T03:31:33.782Z,8.7
2022-09-12T03:34:33.783Z,8.6
2022-09-12T03:37:33.784Z,8.5
2022-09-12T03:40:33.812Z,8.4
2022-09-12T03:43:33.791Z,8.3
2022-09-12T03:46:33.792Z,8.3
2022-09-12T03:49:33.789Z,8.3
2022-09-12T03:52:33.787Z,8.3
2022-09-12T03:55:33.792Z,8.3
2022-09-12T03:58:33.815Z,8.4
2022-09-12T04:01:33.794Z,8.3
2022-09-12T04:04:33.795Z,8.2
2022-09-12T04:07:33.799Z,8.2
2022-09-12T04:10:33.797Z,8.2
2022-09-12T04:13:33.798Z,8.4
2022-09-12T04:16:33.853Z,8.5
2022-09-12T04:19:33.802Z,8.5
2022-09-12T04:22:33.807Z,8.4
2022-09-12T04:25:33.814Z,8.3
2022-09-12T04:28:33.809Z,8.1
2022-09-12T04:31:33.812Z,8.2
2022-09-12T04:34:33.859Z,8.2
2022-09-12T04:37:33.815Z,8.1
2022-09-12T04:40:33.815Z,8
2022-09-12T04:43:33.810Z,7.9
2022-09-12T04:46:33.815Z,8
2022-09-12T04:49:33.819Z,8
2022-09-12T04:52:33.961Z,8.1
2022-09-12T04:55:33.822Z,8.2
2022-09-12T04:58:33.824Z,8.2
2022-09-12T05:01:33.843Z,8.2
2022-09-12T05:04:33.827Z,8.2
2022-09-12T05:07:33.826Z,8.3
2022-09-12T05:10:33.852Z,8.3
2022-09-12T05:13:33.831Z,8.3
2022-09-12T05:16:33.854Z,8.3
2022-09-12T05:19:33.844Z,8.3
2022-09-12T05:22:33.838Z,8.4
2022-09-12T05:25:33.836Z,8.4
2022-09-12T05:28:33.867Z,8.5
2022-09-12T05:31:33.841Z,8.6
2022-09-12T05:34:33.843Z,8.7
2022-09-12T05:37:33.847Z,8.8
2022-09-12T05:40:33.850Z,9
2022-09-12T05:43:33.845Z,9.3
2022-09-12T05:46:33.873Z,9.6
2022-09-12T05:49:33.856Z,9.8
2022-09-12T05:52:33.860Z,9.9
2022-09-12T05:55:33.858Z,10.1
2022-09-12T05:58:33.856Z,10.3
2022-09-12T06:01:33.917Z,10.6
2022-09-12T06:04:33.902Z,11
2022-09-12T06:07:33.869Z,11.3
2022-09-12T06:10:33.863Z,11.6
2022-09-12T06:13:33.870Z,11.8
2022-09-12T06:16:33.896Z,12
2022-09-12T06:19:33.932Z,12.2
2022-09-12T06:22:33.896Z,12.4
2022-09-12T06:25:33.875Z,12.5
2022-09-12T06:28:33.878Z,12.7
2022-09-12T06:31:33.884Z,12.8
2022-09-12T06:34:33.903Z,13.1
2022-09-12T06:37:33.890Z,13.1
2022-09-12T06:40:33.913Z,13.2
2022-09-12T06:43:33.888Z,13.3
2022-09-12T06:46:33.897Z,13.4
2022-09-12T06:49:33.908Z,13.5
2022-09-12T06:52:33.901Z,13.6
2022-09-12T06:55:33.898Z,13.6
2022-09-12T06:58:33.982Z,13.7
2022-09-12T07:01:33.998Z,13.7
2022-09-12T07:04:33.920Z,13.8
2022-09-12T07:07:34.000Z,13.9
2022-09-12T07:10:33.934Z,14
2022-09-12T07:13:33.927Z,14.1
2022-09-12T07:16:34.001Z,14
2022-09-12T07:19:33.943Z,14.1
2022-09-12T07:22:33.938Z,14.1
2022-09-12T07:25:33.939Z,14.2
2022-09-12T07:28:33.939Z,14.3
2022-09-12T07:31:33.942Z,14.4
2022-09-12T07:34:34.126Z,14.3
2022-09-12T07:37:33.945Z,14.4
2022-09-12T07:40:33.949Z,14.7
2022-09-12T07:43:33.955Z,14.9
2022-09-12T07:46:33.957Z,14.9
2022-09-12T07:49:33.963Z,14.9
2022-09-12T07:52:33.992Z,14.9
2022-09-12T07:55:33.965Z,14.9
2022-09-12T07:58:33.963Z,15
2022-09-12T08:01:34.015Z,15
2022-09-12T08:04:33.974Z,15.1
2022-09-12T08:07:33.983Z,15.3
2022-09-12T08:10:34.003Z,15.3
2022-09-12T08:13:33.979Z,15.3
2022-09-12T08:16:33.977Z,15.3
2022-09-12T08:19:33.978Z,15.2
2022-09-12T08:22:33.974Z,15.4
2022-09-12T08:25:33.982Z,15.5
2022-09-12T08:28:34.005Z,15.5
2022-09-12T08:31:33.982Z,15.3
2022-09-12T08:34:33.987Z,15.3
2022-09-12T08:37:33.988Z,15.6
2022-09-12T08:40:33.998Z,15.5
2022-09-12T08:43:34.015Z,15.5
2022-09-12T08:46:34.039Z,15.6
2022-09-12T08:49:34.007Z,15.5
2022-09-12T08:52:34.020Z,15.4
2022-09-12T08:55:34.018Z,15.4
2022-09-12T08:58:34.024Z,15.5
2022-09-12T09:01:34.082Z,15.5
2022-09-12T09:04:34.049Z,15.4
2022-09-12T09:07:34.032Z,15.5
2022-09-12T09:10:34.036Z,15.2
2022-09-12T09:13:34.041Z,15.1
2022-09-12T09:16:34.040Z,14.9
2022-09-12T09:19:34.052Z,15.1
2022-09-12T09:22:34.082Z,15.2
2022-09-12T09:25:34.084Z,15.4
2022-09-12T09:28:34.054Z,14.9
2022-09-12T09:31:34.126Z,14.9
2022-09-12T09:34:34.060Z,15.1
2022-09-12T09:37:34.062Z,15
2022-09-12T09:40:34.093Z,14.9
2022-09-12T09:43:34.274Z,14.9
2022-09-12T09:46:34.161Z,14.7
2022-09-12T09:49:34.083Z,14.6
2022-09-12T09:52:34.094Z,14.5
2022-09-12T09:55:34.101Z,14.3
2022-09-12T09:58:34.126Z,14.2
2022-09-12T10:01:34.138Z,14.1
2022-09-12T10:04:36.974Z,14.1
2022-09-12T10:07:34.113Z,14.2
2022-09-12T10:10:34.125Z,14.3
2022-09-12T10:13:34.125Z,14.4
2022-09-12T10:16:34.163Z,14.4
2022-09-12T10:19:34.139Z,14.3
2022-09-12T10:22:34.142Z,14.2
2022-09-12T10:25:34.148Z,14.1
2022-09-12T10:28:34.154Z,14
2022-09-12T10:31:34.159Z,14
2022-09-12T10:34:34.183Z,14.3
2022-09-12T10:37:34.164Z,14.3
2022-09-12T10:40:34.171Z,14.4
2022-09-12T10:43:34.177Z,14.1
2022-09-12T10:46:34.184Z,13.9
2022-09-12T10:49:34.191Z,14
2022-09-12T10:52:34.212Z,13.8
2022-09-12T10:55:34.192Z,13.7
2022-09-12T10:58:34.198Z,14
2022-09-12T11:01:34.275Z,13.9
2022-09-12T11:04:34.212Z,13.8
2022-09-12T11:07:34.215Z,13.6
2022-09-12T11:10:36.862Z,13.5
2022-09-12T11:13:34.223Z,13.2
2022-09-12T11:16:34.236Z,13.4
2022-09-12T11:19:34.233Z,13.3
2022-09-12T11:22:34.243Z,12.7
2022-09-12T11:25:34.247Z,12.9
2022-09-12T11:28:34.278Z,13.1
2022-09-12T11:31:34.260Z,13
2022-09-12T11:34:34.270Z,13
2022-09-12T11:37:34.273Z,13.2
2022-09-12T11:40:34.370Z,13.2
2022-09-12T11:43:34.279Z,13
2022-09-12T11:46:34.312Z,12.9
2022-09-12T11:49:35.686Z,13
2022-09-12T11:52:34.303Z,13.1
2022-09-12T11:55:34.312Z,12.7
2022-09-12T11:58:34.313Z,12.4
2022-09-12T12:01:37.479Z,12.5
2022-09-12T12:04:34.349Z,12.5
2022-09-12T12:07:34.338Z,12.5
2022-09-12T12:10:34.338Z,12.6
2022-09-12T12:13:34.345Z,13.1
2022-09-12T12:16:34.360Z,13.2
2022-09-12T12:19:34.366Z,12.9
2022-09-12T12:22:34.401Z,12.6
2022-09-12T12:25:34.381Z,12.6
2022-09-12T12:28:34.856Z,12.8
2022-09-12T12:31:34.465Z,12.7
2022-09-12T12:34:34.395Z,13
2022-09-12T12:37:34.404Z,12.9
2022-09-12T12:40:34.435Z,12.6
2022-09-12T12:43:34.411Z,12.7
2022-09-12T12:46:34.453Z,12.7
2022-09-12T12:49:34.438Z,12.6
2022-09-12T12:52:34.434Z,12.6
2022-09-12T12:55:34.440Z,12.6
2022-09-12T12:58:34.472Z,12.6
2022-09-12T13:01:34.477Z,12.6
2022-09-12T13:04:34.466Z,12.5
2022-09-12T13:07:34.463Z,12.7
2022-09-12T13:10:34.484Z,12.7
2022-09-12T13:13:34.493Z,12.8
2022-09-12T13:16:34.515Z,12.8
2022-09-12T13:19:34.501Z,13
2022-09-12T13:22:34.518Z,12.9
2022-09-12T13:25:34.516Z,12.8
2022-09-12T13:28:34.521Z,12.9
2022-09-12T13:31:34.532Z,13
2022-09-12T13:34:34.568Z,12.8
2022-09-12T13:37:34.549Z,12.8
2022-09-12T13:40:34.555Z,12.9
2022-09-12T13:43:34.565Z,13.1
2022-09-12T13:46:34.609Z,13.1
2022-09-12T13:49:34.579Z,13.3
2022-09-12T13:52:34.614Z,13.2
2022-09-12T13:55:34.610Z,13
2022-09-12T13:58:34.613Z,13.1
2022-09-12T14:01:34.619Z,13.3
2022-09-12T14:04:34.625Z,13.2
2022-09-12T14:07:34.627Z,13.2
2022-09-12T14:10:34.659Z,13.2
2022-09-12T14:13:34.649Z,12.9
2022-09-12T14:16:34.653Z,12.6
2022-09-12T14:19:34.660Z,12.7
2022-09-12T14:22:34.667Z,12.8
2022-09-12T14:25:34.674Z,12.7
2022-09-12T14:28:34.708Z,12.6
2022-09-12T14:31:34.688Z,12.8
2022-09-12T14:34:34.701Z,12.6
2022-09-12T14:37:34.726Z,12.7
2022-09-12T14:40:34.720Z,12.9
2022-09-12T14:43:34.719Z,12.7
2022-09-12T14:46:34.805Z,12.4
2022-09-12T14:49:34.745Z,12.5
2022-09-12T14:52:34.751Z,12.5
2022-09-12T14:55:34.757Z,12.5
2022-09-12T14:58:34.755Z,12.6
2022-09-12T15:01:34.843Z,12.4
2022-09-12T15:04:34.819Z,12.4
2022-09-12T15:07:34.773Z,12.3
2022-09-12T15:10:34.782Z,12.1
2022-09-12T15:13:34.792Z,11.8
2022-09-12T15:16:34.800Z,11.8
2022-09-12T15:19:34.878Z,11.6
2022-09-12T15:22:34.830Z,11.4
2022-09-12T15:25:34.816Z,11.7
2022-09-12T15:28:34.820Z,11.7
2022-09-12T15:31:34.865Z,11.6
2022-09-12T15:34:34.839Z,11.4
2022-09-12T15:37:34.841Z,11.7
2022-09-12T15:40:34.873Z,11.7
2022-09-12T15:43:34.849Z,11.9
2022-09-12T15:46:34.951Z,12
2022-09-12T15:49:34.858Z,11.8
2022-09-12T15:52:34.863Z,11.8
2022-09-12T15:55:34.875Z,11.8
2022-09-12T15:58:35.101Z,11.9
2022-09-12T16:01:34.893Z,12
2022-09-12T16:04:34.897Z,12.1
2022-09-12T16:07:34.908Z,12.3
2022-09-12T16:10:34.916Z,12.3
2022-09-12T16:13:34.922Z,12.3
2022-09-12T16:16:34.953Z,12.3
2022-09-12T16:19:34.939Z,12.3
2022-09-12T16:22:34.951Z,12.2
2022-09-12T16:25:34.950Z,12.2
2022-09-12T16:28:34.960Z,12.2
2022-09-12T16:31:35.047Z,12.3
2022-09-12T16:34:34.998Z,12.3
2022-09-12T16:37:34.974Z,12.3
2022-09-12T16:40:34.979Z,12.4
2022-09-12T16:43:34.992Z,12.3
2022-09-12T16:46:35.050Z,12.4
2022-09-12T16:49:35.007Z,12.3
2022-09-12T16:52:35.045Z,12.3
2022-09-12T16:55:35.017Z,12.4
2022-09-12T16:58:38.555Z,12.4
2022-09-12T17:01:35.087Z,12.4
2022-09-12T17:04:35.050Z,12.4
2022-09-12T17:07:35.054Z,12.4
2022-09-12T17:10:35.094Z,12.4
2022-09-12T17:13:53.226Z,12.4
2022-09-12T17:16:35.083Z,12.4
2022-09-12T17:19:35.099Z,12.4
2022-09-12T17:22:35.100Z,12.3
2022-09-12T17:25:35.107Z,12.3
2022-09-12T17:28:35.227Z,12.3
2022-09-12T17:31:35.202Z,12.2
2022-09-12T17:34:35.128Z,12.2
2022-09-12T17:37:35.156Z,12.3
2022-09-12T17:40:55.986Z,12.3
2022-09-12T17:43:35.166Z,12.3
2022-09-12T17:46:35.421Z,12.2
2022-09-12T17:49:35.178Z,12.2
2022-09-12T17:52:35.190Z,12.1
2022-09-12T17:55:35.197Z,12.1
2022-09-12T17:58:35.220Z,12.1
2022-09-12T18:01:35.252Z,12.1
2022-09-12T18:04:35.261Z,12.1
2022-09-12T18:07:35.247Z,12.1
2022-09-12T18:10:35.259Z,12.1
2022-09-12T18:13:35.269Z,12.1
2022-09-12T18:16:35.276Z,12.1
2022-09-12T18:19:35.288Z,12
2022-09-12T18:22:35.408Z,12
2022-09-12T18:25:35.313Z,11.9
2022-09-12T18:28:35.310Z,11.9
2022-09-12T18:31:35.377Z,11.9
2022-09-12T18:34:35.327Z,11.9
2022-09-12T18:37:35.338Z,11.9
2022-09-12T18:40:35.376Z,11.9
2022-09-12T18:43:35.363Z,12
2022-09-12T18:46:35.482Z,12
2022-09-12T18:49:35.389Z,12
2022-09-12T18:52:35.403Z,12
2022-09-12T18:55:35.413Z,12.1
2022-09-12T18:58:35.457Z,12.1
2022-09-12T19:01:35.487Z,12
2022-09-12T19:04:35.447Z,12.1
2022-09-12T19:07:35.457Z,12.1
2022-09-12T19:10:35.471Z,12.1
2022-09-12T19:13:35.476Z,12
2022-09-12T19:16:35.639Z,12
2022-09-12T19:19:38.775Z,12
2022-09-12T19:22:35.508Z,12
2022-09-12T19:25:35.517Z,12
2022-09-12T19:28:35.529Z,12
2022-09-12T19:31:35.662Z,12
2022-09-12T19:34:35.596Z,12
2022-09-12T19:37:35.562Z,11.9
2022-09-12T19:40:35.572Z,11.9
2022-09-12T19:43:35.615Z,11.9
2022-09-12T19:46:35.652Z,11.9
2022-09-12T19:49:35.598Z,11.9
2022-09-12T19:52:35.643Z,11.9
2022-09-12T19:55:35.629Z,11.9
2022-09-12T19:58:35.639Z,11.9
2022-09-12T20:01:35.714Z,11.8
2022-09-12T20:04:35.662Z,11.9
2022-09-12T20:07:35.665Z,11.8
2022-09-12T20:10:35.728Z,11.8
2022-09-12T20:13:35.698Z,11.8
2022-09-12T20:16:35.762Z,11.8
2022-09-12T20:19:35.715Z,11.7
2022-09-12T20:22:39.843Z,11.6
2022-09-12T20:25:35.738Z,11.6
2022-09-12T20:28:35.763Z,11.6
2022-09-12T20:31:35.839Z,11.6
2022-09-12T20:34:35.762Z,11.6
2022-09-12T20:37:35.772Z,11.6
2022-09-12T20:40:35.787Z,11.5
2022-09-12T20:43:35.800Z,11.5
2022-09-12T20:46:35.893Z,11.3
2022-09-12T20:49:35.830Z,11.4
2022-09-12T20:52:35.838Z,11.4
2022-09-12T20:55:35.848Z,11.4
2022-09-12T20:58:37.532Z,11.4
2022-09-12T21:01:35.942Z,11.3
2022-09-12T21:04:35.905Z,11.3
2022-09-12T21:07:35.897Z,11.3
2022-09-12T21:10:35.978Z,11.3
2022-09-12T21:13:35.917Z,11.2
2022-09-12T21:16:35.935Z,11.2
2022-09-12T21:19:35.940Z,11.1
2022-09-12T21:22:35.973Z,11.1
2022-09-12T21:25:36.061Z,11.1
2022-09-12T21:28:35.969Z,11.1
2022-09-12T21:31:36.053Z,11.1
2022-09-12T21:34:35.989Z,11
2022-09-12T21:37:35.998Z,11
2022-09-12T21:40:36.036Z,10.9
2022-09-12T21:43:36.029Z,10.9
2022-09-12T21:46:36.127Z,10.9
2022-09-12T21:49:36.048Z,10.8
2022-09-12T21:52:36.055Z,10.8
2022-09-12T21:55:36.065Z,10.8
2022-09-12T21:58:36.104Z,10.8
2022-09-12T22:01:36.197Z,10.8
2022-09-12T22:04:36.094Z,10.9
2022-09-12T22:07:36.114Z,10.8
2022-09-12T22:10:36.116Z,10.8
2022-09-12T22:13:36.130Z,10.9
2022-09-12T22:16:36.170Z,10.8
2022-09-12T22:19:36.149Z,10.9
2022-09-12T22:22:37.162Z,10.9
2022-09-12T22:25:36.167Z,10.9
2022-09-12T22:28:36.172Z,10.8
2022-09-12T22:31:36.231Z,10.8
2022-09-12T22:34:36.219Z,10.8
2022-09-12T22:37:36.204Z,10.7
2022-09-12T22:40:36.210Z,10.7
2022-09-12T22:43:36.220Z,10.7
2022-09-12T22:46:36.319Z,10.6
2022-09-12T22:49:36.246Z,10.6
2022-09-12T22:52:36.271Z,10.6
2022-09-12T22:55:36.248Z,10.6
2022-09-12T22:58:36.263Z,10.6
2022-09-12T23:01:36.275Z,10.6
2022-09-12T23:04:36.272Z,10.7
2022-09-12T23:07:36.278Z,10.7
2022-09-12T23:10:36.314Z,10.6
2022-09-12T23:13:36.339Z,10.7
2022-09-12T23:16:36.373Z,10.8
2022-09-12T23:19:36.308Z,10.7
2022-09-12T23:22:36.313Z,10.7
2022-09-12T23:25:36.321Z,10.7
2022-09-12T23:28:36.413Z,10.6
2022-09-12T23:31:36.409Z,10.6
2022-09-12T23:34:36.338Z,10.5
2022-09-12T23:37:36.342Z,10.6
2022-09-12T23:40:36.357Z,10.7
2022-09-12T23:43:36.354Z,10.7
2022-09-12T23:46:36.397Z,10.7
2022-09-12T23:49:36.362Z,10.6
2022-09-12T23:52:36.377Z,10.6
2022-09-12T23:55:36.378Z,10.6
2022-09-12T23:58:36.386Z,10.6
